• Join FlightAware (Why Join?)
  • Login
  • US Flag 
09:04PM EST


 

Airport Tracker/Info


-or-


 

Live Flight TrackerFlight Track Log ✈ EJA125P ✈ 06-May-2013 ✈ KLAS - KAAO

Flight Track Log - Related Links

Times and Time Zones

All times are in EDT time to prevent confusion due to time zone crossing. See the EJA125P flight status page for this flight to view local times or setup timezone preferences in your user account.

Time Position Orientation Groundspeed Altitude Reporting Facility
EDT Latitude Longitude Course Direction KTS MPH feet Rate Location/Type
10:15PM 36.0400 -115.1908 85° East 177 204 4,400  Level Los Angeles Center
10:16PM 35.9961 -115.2478 226° Southwest 239 275 6,100 1,980 Climbing Los Angeles Center
10:17PM 35.9361 -115.2725 198° South 254 292 8,600 2,340 Climbing Los Angeles Center
10:18PM 35.9231 -115.1811 100° East 279 321 11,100 2,340 Climbing Los Angeles Center
10:19PM 35.9217 -115.0769 91° East 300 345 13,500 2,100 Climbing Los Angeles Center
10:20PM 35.8400 -114.7672 85° East  Level FlightAware Approximate
10:20PM 35.9211 -114.9714 90° East 308 354 15,500  Level Los Angeles Center
10:21PM 35.9222 -114.8522 89° East 340 391 17,000 1,560 Climbing Los Angeles Center
10:22PM 35.9214 -114.7275 90° East 359 413 18,800 1,620 Climbing Los Angeles Center
10:23PM 35.9217 -114.5969 90° East 380 437 20,400 1,740 Climbing Los Angeles Center
10:24PM 35.9231 -114.4319 89° East 400 460 22,400 1,740 Climbing Los Angeles Center
10:25PM 35.9344 -114.2875 84° East 419 482 24,000 1,440 Climbing Los Angeles Center
10:26PM 35.9492 -114.1383 83° East 436 502 25,400 1,260 Climbing Los Angeles Center
10:27PM 35.9653 -113.9847 83° East 448 516 26,700 1,080 Climbing Los Angeles Center
10:28PM 35.9800 -113.8289 83° East 455 524 27,900 1,140 Climbing Los Angeles Center
10:29PM 35.9989 -113.6372 83° East 466 536 29,400 1,320 Climbing Los Angeles Center
10:30PM 36.0125 -113.4739 84° East 474 545 30,700 1,140 Climbing Los Angeles Center
10:31PM 36.0278 -113.3111 83° East 478 550 31,800 1,020 Climbing Los Angeles Center
10:33PM 36.0523 -113.1401 84° East  Level FlightAware Approximate
10:33PM 36.0594 -112.9639 84° East 486 559 33,900  Level Albuquerque Center
10:34PM 36.0739 -112.7978 84° East 487 560 34,800 960 Climbing Albuquerque Center
10:35PM 36.0900 -112.6006 84° East 486 559 36,000 960 Climbing Los Angeles Center
10:36PM 36.1042 -112.4364 84° East 482 555 36,900 900 Climbing Los Angeles Center
10:37PM 36.1178 -112.2772 84° East 472 543 37,900 780 Climbing Los Angeles Center
10:38PM 36.1300 -112.1214 84° East 455 524 38,500 420 Climbing Los Angeles Center
10:39PM 36.1406 -111.9983 84° East 451 519 38,800 420 Climbing Los Angeles Center
10:41PM 36.1550 -111.8169 84° East 451 519 39,400 360 Climbing Los Angeles Center
10:41PM 36.1661 -111.6642 85° East 452 520 39,600 240 Climbing Denver Center
10:42PM 36.1781 -111.5083 85° East 456 525 39,900 240 Climbing Denver Center
10:43PM 36.1897 -111.3522 85° East 457 526 40,100 180 Climbing Denver Center
10:44PM 36.2003 -111.1978 85° East 454 522 40,300 240 Climbing Denver Center
10:46PM 36.2128 -111.0422 84° East 455 524 40,600 300 Climbing Denver Center
10:47PM 36.2267 -110.8594 85° East 449 517 41,000 180 Climbing Denver Center
10:48PM 36.2353 -110.7069 86° East 446 513 41,000 -300 Level Denver Center
10:49PM 36.2464 -110.5531 85° East 449 517 40,500 -780 Descending Denver Center
10:50PM 36.2564 -110.3911 86° East 466 536 39,500 -1,080 Descending Denver Center
10:51PM 36.2692 -110.2256 84° East 479 551 38,400 -1,080 Descending Denver Center
10:52PM 36.2792 -110.0475 86° East 484 557 37,300 -1,080 Descending Denver Center
10:53PM 36.2881 -109.8839 86° East 493 567 36,300 -960 Descending Denver Center
10:54PM 36.2978 -109.7439 85° East 504 580 35,400 -660 Descending Denver Center
10:55PM 36.3117 -109.5147 86° East 518 596 35,000 -240 Descending Denver Center
10:56PM 36.3214 -109.3425 86° East 522 601 35,000  Level Denver Center
10:57PM 36.3319 -109.1419 86° East 520 598 35,000  Level Denver Center
10:58PM 36.3422 -108.9717 86° East 514 592 35,000  Level Denver Center
10:59PM 36.3511 -108.8000 86° East 514 592 35,000  Level Denver Center
11:00PM 36.3606 -108.6011 87° East 513 590 35,000  Level Denver Center
11:01PM 36.3694 -108.4319 86° East 512 589 35,000  Level Denver Center
11:02PM 36.3775 -108.2622 87° East 512 589 35,000  Level Denver Center
11:03PM 36.3861 -108.0658 87° East 510 587 35,000  Level Denver Center
11:04PM 36.3939 -107.8964 87° East 511 588 35,000  Level Denver Center
11:05PM 36.4019 -107.7275 87° East 512 589 35,000  Level Denver Center
11:06PM 36.4106 -107.5306 87° East 511 588 35,000  Level Denver Center
11:07PM 36.4178 -107.3617 87° East 511 588 35,000  Level Denver Center
11:08PM 36.4258 -107.1661 87° East 510 587 35,000  Level Denver Center
11:09PM 36.4317 -106.9981 87° East 509 586 35,000  Level Denver Center
11:10PM 36.4372 -106.8572 87° East 510 587 35,000  Level Denver Center
11:11PM 36.4450 -106.6350 87° East 506 582 35,000  Level Denver Center
11:12PM 36.4497 -106.4981 88° East 504 580 35,000  Level Albuquerque Center
11:13PM 36.4569 -106.3103 87° East 492 566 35,000  Level Albuquerque Center
11:14PM 36.4622 -106.1503 88° East 487 560 35,000  Level Albuquerque Center
11:15PM 36.4658 -105.9906 88° East 485 558 35,000  Level Albuquerque Center
11:16PM 36.4728 -105.8175 87° East 483 556 35,000  Level Albuquerque Center
11:17PM 36.4758 -105.6469 89° East 489 563 35,000  Level Albuquerque Center
11:18PM 36.4800 -105.4492 88° East 493 567 35,000  Level Albuquerque Center
11:19PM 36.4842 -105.2869 88° East 492 566 35,000  Level Albuquerque Center
11:20PM 36.4872 -105.1294 89° East 486 559 35,000  Level Albuquerque Center
11:21PM 36.4903 -104.9639 89° East 478 550 35,000  Level Albuquerque Center
11:22PM 36.5033 -104.8025 84° East 468 539 35,000  Level Albuquerque Center
11:23PM 36.5336 -104.6081 79° East 482 555 35,000  Level Albuquerque Center
11:24PM 36.5600 -104.4436 79° East 481 554 35,000  Level Albuquerque Center
11:25PM 36.5842 -104.2819 79° East 475 547 35,000  Level Albuquerque Center
11:26PM 36.6089 -104.1247 79° East 466 536 35,000  Level Albuquerque Center
11:27PM 36.6333 -103.9664 79° East 462 532 35,000  Level Albuquerque Center
11:28PM 36.6578 -103.8061 79° East 464 534 35,000  Level Albuquerque Center
11:29PM 36.6806 -103.6514 80° East 463 533 35,000  Level Albuquerque Center
11:30PM 36.7028 -103.5011 80° East 463 533 35,000  Level Albuquerque Center
11:31PM 36.7281 -103.3269 80° East 460 529 35,000  Level Albuquerque Center
11:32PM 36.7489 -103.1792 80° East 457 526 35,000  Level Albuquerque Center
11:33PM 36.7747 -103.0064 79° East 456 525 35,000  Level Albuquerque Center
11:34PM 36.7953 -102.8583 80° East 455 524 35,000  Level Albuquerque Center
11:35PM 36.8200 -102.7094 78° East 457 526 35,000  Level Albuquerque Center
11:36PM 36.8536 -102.5386 76° East 454 522 35,000  Level Albuquerque Center
11:37PM 36.8803 -102.3947 77° East 457 526 35,000  Level Albuquerque Center
11:38PM 36.9147 -102.2228 76° East 458 527 35,000  Level Albuquerque Center
11:40PM 36.9422 -102.0772 77° East 453 521 35,000  Level Albuquerque Center
11:41PM 36.9747 -101.9036 77° East 459 528 35,000  Level Albuquerque Center
11:42PM 37.0008 -101.7547 78° East 459 528 35,000  Level Albuquerque Center
11:43PM 37.0289 -101.6067 77° East 459 528 35,000  Level Albuquerque Center
11:44PM 37.0786 -101.3347 77° East 458 527 35,000  Level Kansas City Center
11:45PM 37.1097 -101.1617 77° East 459 528 35,000  Level Kansas City Center
11:46PM 37.1347 -101.0178 78° East 451 519 35,000  Level Kansas City Center
11:47PM 37.1606 -100.8747 77° East 445 512 35,000  Level Kansas City Center
11:48PM 37.1903 -100.7042 78° East 450 518 35,000  Level Kansas City Center
11:49PM 37.2167 -100.5572 77° East 453 521 35,000  Level Kansas City Center
11:50PM 37.2425 -100.4092 78° East 456 525 35,000  Level Kansas City Center
11:51PM 37.2722 -100.2347 78° East 458 527 35,000  Level Kansas City Center
11:52PM 37.2981 -100.0850 78° East 460 529 35,000  Level Kansas City Center
11:53PM 37.3283 -99.9094 78° East 463 533 35,000  Level Kansas City Center
11:54PM 37.3539 -99.7561 78° East 466 536 35,000  Level Kansas City Center
11:55PM 37.3786 -99.6031 78° East 468 539 35,000  Level Kansas City Center
11:56PM 37.4094 -99.4267 78° East 470 541 35,000  Level Kansas City Center
11:57PM 37.4347 -99.2644 79° East 472 543 35,000  Level Kansas City Center
11:58PM 37.4622 -99.1044 78° East 469 540 35,000  Level Kansas City Center
12:00AM 37.4881 -98.9433 79° East 471 542 35,000  Level Kansas City Center
12:01AM 37.5122 -98.7828 79° East 468 539 35,000  Level Kansas City Center
12:02AM 37.5361 -98.6186 80° East 475 547 35,000 -1,020 Level Kansas City Center
12:02AM 37.5611 -98.4664 78° East 472 543 33,200 -2,220 Descending Kansas City Center
12:03AM 37.5703 -98.4069 79° East 467 537 32,300 -2,040 Descending Kansas City Center
12:04AM 37.5861 -98.3014 79° East 459 528 30,800 -2,460 Descending Kansas City Center
12:05AM 37.6108 -98.1439 79° East 461 531 27,900 -3,600 Descending Kansas City Center
12:05AM 37.6236 -98.0669 78° East 459 528 26,000 -3,840 Descending Kansas City Center
12:06AM 37.6339 -97.9908 80° East 451 519 24,000 -3,900 Descending Kansas City Center
12:06AM 37.6453 -97.9158 79° East 440 506 22,100 -4,680 Descending Kansas City Center
12:07AM 37.6606 -97.8164 79° East 429 494 19,300 -4,080 Descending Kansas City Center
12:07AM 37.6675 -97.7725 79° East 415 478 18,000 -3,720 Descending Kansas City Center
12:08AM 37.6811 -97.6819 79° East 396 456 15,600 -3,780 Descending Kansas City Center
12:08AM 37.6908 -97.6447 72° East 372 428 14,200 -2,580 Descending Kansas City Center
12:09AM 37.7144 -97.5686 69° East 342 394 13,000 -2,040 Descending Kansas City Center
12:09AM 37.7267 -97.5361 65° Northeast 303 349 12,200 -2,700 Descending Kansas City Center
12:10AM 37.7464 -97.4706 69° East 309 356 10,300 -2,700 Descending Kansas City Center
12:10AM 37.7589 -97.4358 66° East 300 345 9,500 -1,920 Descending Kansas City Center
12:11AM 37.7803 -97.3794 64° Northeast 292 336 8,400 -1,980 Descending Kansas City Center
12:12AM 37.8347 -97.3225 40° Northeast 257 296 6,200 -2,100 Descending Kansas City Center
12:13AM 37.8892 -97.2683 38° Northeast 251 289 4,200 -1,440 Descending Kansas City Center
12:14AM 37.9192 -97.2131 55° Northeast 233 268 3,300 -660 Descending Kansas City Center
12:15AM 37.8742 -97.1903 158° South 218 251 2,900 -420 Descending Kansas City Center
12:17AM 37.7476 -97.2211 90° East  Level Estimated
12:24AM 37.7476 -97.2211 90° East  Level Estimated